Time;durP1;ratioP1;P1;durP2;ratioP2;P2;SDS_P1;SDS_P2;PMS_P1;PMS_P2;Temp;Humidity;BMP_temperature;BMP_pressure;BME280_temperature;BME280_humidity;BME280_pressure;Samples;Min_cycle;Max_cycle;Signal;HPM_P1;HPM_P2
2024/01/21 00:00:32;;;;;;;0.20;0.20;;;0.60;92.80;;;;;;5094231;28;20137;-74
2024/01/21 00:02:59;;;;;;;0.20;0.20;;;0.70;93.20;;;;;;5080921;28;20052;-75
2024/01/21 00:05:26;;;;;;;0.20;0.20;;;0.60;93.60;;;;;;5075785;28;20106;-74
2024/01/21 00:07:54;;;;;;;0.10;0.10;;;0.50;94.50;;;;;;5061481;28;20485;-74
2024/01/21 00:10:22;;;;;;;0.20;0.20;;;0.40;94.90;;;;;;5078317;28;20052;-75
2024/01/21 00:12:49;;;;;;;0.20;0.20;;;0.40;94.70;;;;;;5071263;28;20045;-75
2024/01/21 00:15:16;;;;;;;0.20;0.20;;;0.40;95.30;;;;;;5080159;28;21046;-75
2024/01/21 00:17:43;;;;;;;0.22;0.22;;;0.40;95.10;;;;;;5061279;28;20128;-74
2024/01/21 00:20:11;;;;;;;0.10;0.10;;;0.40;95.00;;;;;;5081899;28;20474;-73
2024/01/21 00:22:40;;;;;;;0.20;0.20;;;0.40;94.60;;;;;;5062125;28;20566;-73
2024/01/21 00:25:09;;;;;;;0.20;0.20;;;0.50;94.70;;;;;;5060901;28;20041;-73
2024/01/21 00:27:37;;;;;;;0.20;0.20;;;0.50;94.30;;;;;;5080534;28;20398;-73
2024/01/21 00:30:05;;;;;;;0.25;0.25;;;0.50;94.10;;;;;;5080883;28;20080;-73
2024/01/21 00:32:32;;;;;;;0.20;0.20;;;0.60;93.70;;;;;;5061138;28;20045;-74
2024/01/21 00:34:59;;;;;;;0.20;0.20;;;0.60;93.60;;;;;;5081980;28;20053;-74
2024/01/21 00:37:26;;;;;;;0.20;0.20;;;0.50;94.10;;;;;;5047235;28;20056;-73
2024/01/21 00:39:54;;;;;;;0.20;0.20;;;0.50;94.10;;;;;;5075294;28;20087;-74
2024/01/21 00:42:21;;;;;;;0.30;0.30;;;0.50;94.30;;;;;;5060634;28;20056;-73
2024/01/21 00:44:49;;;;;;;0.20;0.20;;;0.60;93.90;;;;;;5079370;28;20142;-74
2024/01/21 00:47:16;;;;;;;0.20;0.20;;;0.50;94.00;;;;;;5076152;28;20041;-73
2024/01/21 00:49:43;;;;;;;0.20;0.20;;;0.50;93.80;;;;;;5089584;28;20045;-74
2024/01/21 00:52:11;;;;;;;0.20;0.20;;;0.50;93.90;;;;;;5081700;28;20816;-73
2024/01/21 00:54:38;;;;;;;0.20;0.20;;;0.40;94.00;;;;;;5085775;28;20064;-74
2024/01/21 00:57:05;;;;;;;0.20;0.20;;;0.40;94.40;;;;;;5069098;28;20081;-74
2024/01/21 00:59:32;;;;;;;0.20;0.20;;;0.40;94.20;;;;;;5086209;28;20041;-74
2024/01/21 01:01:59;;;;;;;0.20;0.20;;;0.40;94.20;;;;;;5068605;28;20060;-75
2024/01/21 01:04:26;;;;;;;0.15;0.15;;;0.40;93.60;;;;;;5050078;28;20060;-75
2024/01/21 01:06:53;;;;;;;0.20;0.20;;;0.40;93.60;;;;;;5070290;28;20124;-75
2024/01/21 01:09:21;;;;;;;0.20;0.20;;;0.40;92.80;;;;;;5073190;28;20040;-75
2024/01/21 01:11:48;;;;;;;0.20;0.20;;;0.40;92.70;;;;;;5055312;28;20072;-75
2024/01/21 01:14:15;;;;;;;0.20;0.20;;;0.40;92.50;;;;;;5064449;28;20512;-74
2024/01/21 01:16:42;;;;;;;0.20;0.20;;;0.40;92.40;;;;;;5089459;28;20052;-74
2024/01/21 01:19:09;;;;;;;0.25;0.25;;;0.40;91.80;;;;;;5087834;28;20044;-74
2024/01/21 01:21:36;;;;;;;0.20;0.20;;;0.50;91.80;;;;;;5052814;28;20087;-74
2024/01/21 01:24:04;;;;;;;0.20;0.20;;;0.50;91.90;;;;;;5038494;28;20053;-74
2024/01/21 01:26:31;;;;;;;0.20;0.20;;;0.40;92.30;;;;;;5088307;28;20068;-74
2024/01/21 01:28:58;;;;;;;0.20;0.20;;;0.50;92.00;;;;;;5082731;28;20041;-74
2024/01/21 01:31:26;;;;;;;0.20;0.20;;;0.40;91.70;;;;;;5086260;28;20044;-74
2024/01/21 01:33:53;;;;;;;0.20;0.20;;;0.50;91.30;;;;;;5085465;28;25064;-74
2024/01/21 01:36:20;;;;;;;0.20;0.20;;;0.50;91.70;;;;;;5077875;28;20583;-74
2024/01/21 01:38:47;;;;;;;0.20;0.20;;;0.50;91.00;;;;;;5068052;28;20051;-74
2024/01/21 01:41:15;;;;;;;0.20;0.20;;;0.50;91.00;;;;;;5086276;28;20044;-74
2024/01/21 01:43:42;;;;;;;0.20;0.20;;;0.50;91.60;;;;;;5090063;28;20036;-73
2024/01/21 01:46:10;;;;;;;0.20;0.20;;;0.60;90.80;;;;;;5076761;28;20041;-73
2024/01/21 01:48:38;;;;;;;0.20;0.20;;;0.60;90.30;;;;;;5084874;28;20094;-74
2024/01/21 01:51:07;;;;;;;0.20;0.20;;;0.60;90.00;;;;;;5085564;28;20044;-74
2024/01/21 01:53:36;;;;;;;0.20;0.20;;;0.70;90.30;;;;;;5057301;28;20045;-74
2024/01/21 01:56:03;;;;;;;0.20;0.20;;;0.70;90.30;;;;;;5072659;28;20455;-74
2024/01/21 01:58:34;;;;;;;0.25;0.25;;;0.70;89.70;;;;;;5097837;28;20045;-72
2024/01/21 02:01:01;;;;;;;0.10;0.10;;;0.70;88.80;;;;;;5066062;28;20132;-74
2024/01/21 02:03:29;;;;;;;0.20;0.20;;;0.80;87.60;;;;;;5084483;28;20080;-75
2024/01/21 02:05:56;;;;;;;0.20;0.20;;;0.90;87.00;;;;;;5085155;28;20056;-74
2024/01/21 02:08:23;;;;;;;0.20;0.20;;;0.90;87.10;;;;;;5085852;28;20048;-74
2024/01/21 02:10:50;;;;;;;0.10;0.10;;;0.90;86.80;;;;;;5077271;28;20055;-74
2024/01/21 02:13:17;;;;;;;0.20;0.20;;;0.90;85.70;;;;;;5052787;28;20052;-75
2024/01/21 02:15:44;;;;;;;0.10;0.10;;;0.90;85.50;;;;;;5049938;28;20501;-74
2024/01/21 02:18:12;;;;;;;0.10;0.10;;;0.90;85.30;;;;;;5085635;28;20520;-74
2024/01/21 02:20:39;;;;;;;0.20;0.20;;;0.90;85.10;;;;;;5082923;28;20045;-74
2024/01/21 02:23:10;;;;;;;0.20;0.20;;;0.90;85.20;;;;;;5077243;28;20049;-74
2024/01/21 02:25:37;;;;;;;0.20;0.20;;;0.90;85.10;;;;;;5067178;28;20134;-74
2024/01/21 02:28:04;;;;;;;0.10;0.10;;;1.00;84.50;;;;;;5067972;28;20044;-74
2024/01/21 02:30:32;;;;;;;0.20;0.20;;;1.00;85.80;;;;;;5087555;28;20123;-74
2024/01/21 02:32:59;;;;;;;0.20;0.20;;;0.90;85.20;;;;;;5065157;28;20131;-74
2024/01/21 02:35:27;;;;;;;0.20;0.20;;;0.90;85.60;;;;;;5083804;28;20049;-74
2024/01/21 02:37:54;;;;;;;0.13;0.13;;;0.90;85.10;;;;;;5086902;28;20041;-74
2024/01/21 02:40:21;;;;;;;0.22;0.22;;;0.90;85.30;;;;;;5067063;28;20139;-74
2024/01/21 02:42:48;;;;;;;0.20;0.20;;;0.90;85.70;;;;;;5068129;28;20085;-74
2024/01/21 02:45:15;;;;;;;0.17;0.17;;;1.00;84.20;;;;;;5078414;28;20041;-74
2024/01/21 02:47:42;;;;;;;0.20;0.20;;;1.10;83.60;;;;;;5082825;28;20036;-73
2024/01/21 02:50:09;;;;;;;0.15;0.15;;;1.10;83.30;;;;;;5087724;28;20055;-74
2024/01/21 02:52:37;;;;;;;0.20;0.20;;;1.00;83.70;;;;;;5066243;28;20467;-74
2024/01/21 02:55:04;;;;;;;0.30;0.30;;;1.00;83.20;;;;;;5062998;28;20052;-74
2024/01/21 02:57:31;;;;;;;0.20;0.20;;;1.00;83.10;;;;;;5082303;28;20051;-74
2024/01/21 02:59:58;;;;;;;0.20;0.20;;;1.00;83.20;;;;;;5058692;28;20091;-74
2024/01/21 03:02:26;;;;;;;0.20;0.20;;;1.00;83.60;;;;;;5061186;28;20144;-74
2024/01/21 03:04:53;;;;;;;0.20;0.20;;;1.00;83.30;;;;;;5065580;28;20045;-74
2024/01/21 03:07:20;;;;;;;0.20;0.20;;;1.00;83.70;;;;;;5064941;28;20052;-73
2024/01/21 03:09:47;;;;;;;0.20;0.20;;;1.00;83.20;;;;;;5086670;28;20049;-74
2024/01/21 03:12:14;;;;;;;0.20;0.20;;;1.00;82.80;;;;;;5067508;28;20053;-74
2024/01/21 03:14:41;;;;;;;0.20;0.20;;;1.00;82.70;;;;;;5053186;28;20049;-74
2024/01/21 03:17:09;;;;;;;0.20;0.20;;;1.10;82.20;;;;;;5084166;28;20060;-73
2024/01/21 03:19:36;;;;;;;0.20;0.20;;;1.10;82.30;;;;;;5062745;28;20056;-74
2024/01/21 03:22:03;;;;;;;0.20;0.20;;;1.10;81.50;;;;;;5068897;28;20054;-74
2024/01/21 03:24:31;;;;;;;0.20;0.20;;;1.10;81.50;;;;;;5088551;28;20109;-75
2024/01/21 03:26:59;;;;;;;0.20;0.20;;;1.20;80.40;;;;;;5068460;28;20048;-75
2024/01/21 03:29:26;;;;;;;0.30;0.30;;;1.20;79.50;;;;;;5071472;28;22412;-75
2024/01/21 03:31:53;;;;;;;0.20;0.20;;;1.30;78.80;;;;;;5068413;28;20051;-74
2024/01/21 03:34:20;;;;;;;0.20;0.20;;;1.20;79.10;;;;;;5070357;28;20040;-74
2024/01/21 03:36:47;;;;;;;0.20;0.20;;;1.30;79.60;;;;;;5074065;28;20048;-74
2024/01/21 03:39:14;;;;;;;0.20;0.20;;;1.30;78.60;;;;;;5070133;28;20128;-74
2024/01/21 03:41:41;;;;;;;0.10;0.10;;;1.20;78.80;;;;;;5083667;28;20048;-74
2024/01/21 03:44:08;;;;;;;0.20;0.20;;;1.20;78.80;;;;;;5071505;28;20045;-75
2024/01/21 03:46:36;;;;;;;0.20;0.20;;;1.20;79.20;;;;;;5086537;28;20511;-74
2024/01/21 03:49:03;;;;;;;0.20;0.20;;;1.20;78.80;;;;;;5070900;28;20508;-74
2024/01/21 03:51:30;;;;;;;0.20;0.20;;;1.20;78.40;;;;;;5087343;28;20098;-74
2024/01/21 03:53:58;;;;;;;0.20;0.20;;;1.30;78.40;;;;;;5054062;28;20055;-74
2024/01/21 03:56:25;;;;;;;0.10;0.10;;;1.40;77.10;;;;;;5087645;28;20063;-74
2024/01/21 03:58:52;;;;;;;0.20;0.20;;;1.40;77.20;;;;;;5084504;28;20052;-74
2024/01/21 04:01:19;;;;;;;0.20;0.20;;;1.50;76.10;;;;;;5082950;28;20575;-74
2024/01/21 04:03:46;;;;;;;0.20;0.20;;;1.50;76.20;;;;;;5040682;28;20906;-74
2024/01/21 04:06:14;;;;;;;0.20;0.20;;;1.50;76.30;;;;;;5068728;28;20412;-74
2024/01/21 04:08:41;;;;;;;0.20;0.20;;;1.60;76.10;;;;;;5078351;28;20133;-74
2024/01/21 04:11:08;;;;;;;0.22;0.22;;;1.50;75.70;;;;;;5082709;28;20056;-74
2024/01/21 04:13:35;;;;;;;0.20;0.20;;;1.60;75.50;;;;;;5072639;28;20640;-74
2024/01/21 04:16:02;;;;;;;0.20;0.20;;;1.50;75.20;;;;;;5087092;28;20057;-74
2024/01/21 04:18:30;;;;;;;0.20;0.20;;;1.50;74.70;;;;;;5068315;28;20107;-74
2024/01/21 04:21:00;;;;;;;0.30;0.30;;;1.60;74.70;;;;;;5060750;28;20056;-74
2024/01/21 04:23:28;;;;;;;0.20;0.20;;;1.60;75.00;;;;;;5085063;28;20134;-74
2024/01/21 04:25:55;;;;;;;0.20;0.20;;;1.60;74.70;;;;;;5081741;28;20131;-74
2024/01/21 04:28:23;;;;;;;0.20;0.20;;;1.60;74.40;;;;;;5080666;28;25520;-74
2024/01/21 04:30:52;;;;;;;0.20;0.20;;;1.70;74.00;;;;;;5064212;28;20052;-74
2024/01/21 04:33:20;;;;;;;0.20;0.20;;;1.70;74.10;;;;;;5089644;28;20048;-74
2024/01/21 04:35:47;;;;;;;0.20;0.20;;;1.80;72.80;;;;;;5052820;28;20135;-74
2024/01/21 04:38:14;;;;;;;0.10;0.10;;;1.80;73.40;;;;;;5066046;28;20048;-74
2024/01/21 04:40:41;;;;;;;0.20;0.20;;;1.80;73.00;;;;;;5062786;28;20048;-74
2024/01/21 04:43:08;;;;;;;0.20;0.20;;;1.80;72.70;;;;;;5072782;28;20041;-73
2024/01/21 04:45:35;;;;;;;0.25;0.25;;;1.80;73.10;;;;;;5076036;28;20045;-74
2024/01/21 04:48:03;;;;;;;0.20;0.20;;;1.70;73.20;;;;;;5088536;28;20041;-74
2024/01/21 04:50:31;;;;;;;0.20;0.20;;;1.70;73.40;;;;;;5081288;28;20052;-74
2024/01/21 04:52:58;;;;;;;0.20;0.20;;;1.70;73.20;;;;;;5064800;28;20441;-74
2024/01/21 04:55:25;;;;;;;0.20;0.20;;;1.80;72.40;;;;;;5065905;28;20133;-73
2024/01/21 04:57:53;;;;;;;0.20;0.20;;;1.80;71.70;;;;;;5087374;28;20048;-74
2024/01/21 05:00:20;;;;;;;0.20;0.20;;;1.80;72.10;;;;;;5070217;28;20631;-73
2024/01/21 05:02:47;;;;;;;0.20;0.20;;;1.80;71.60;;;;;;5086803;28;20056;-73
2024/01/21 05:05:14;;;;;;;0.20;0.20;;;1.80;71.60;;;;;;5068768;28;20053;-73
2024/01/21 05:07:42;;;;;;;0.30;0.30;;;1.80;71.40;;;;;;5072511;28;20486;-73
2024/01/21 05:10:09;;;;;;;0.20;0.20;;;1.80;72.00;;;;;;5080486;28;20479;-74
2024/01/21 05:12:36;;;;;;;0.20;0.20;;;1.80;72.10;;;;;;5069369;28;20423;-73
2024/01/21 05:15:04;;;;;;;0.20;0.20;;;1.80;71.50;;;;;;5089400;28;20119;-74
2024/01/21 05:17:31;;;;;;;0.20;0.20;;;1.80;71.40;;;;;;5085042;28;20055;-73
2024/01/21 05:19:58;;;;;;;0.20;0.20;;;1.80;71.50;;;;;;5074011;28;20099;-73
2024/01/21 05:22:28;;;;;;;0.20;0.20;;;1.80;71.80;;;;;;5086884;28;20126;-75
2024/01/21 05:24:55;;;;;;;0.20;0.20;;;1.80;72.50;;;;;;5073582;28;20056;-75
2024/01/21 05:27:22;;;;;;;0.20;0.20;;;1.80;72.10;;;;;;5085825;28;20128;-75
2024/01/21 05:29:49;;;;;;;0.20;0.20;;;1.80;71.40;;;;;;5064051;28;20045;-74
2024/01/21 05:32:16;;;;;;;0.20;0.20;;;1.80;71.10;;;;;;5087899;28;20051;-75
2024/01/21 05:34:44;;;;;;;0.20;0.20;;;1.90;71.30;;;;;;5066220;28;20043;-75
2024/01/21 05:37:11;;;;;;;0.20;0.20;;;1.80;71.30;;;;;;5061534;28;26417;-75
2024/01/21 05:39:38;;;;;;;0.20;0.20;;;1.90;70.60;;;;;;5084454;28;20279;-76
2024/01/21 05:42:10;;;;;;;0.20;0.20;;;1.90;71.00;;;;;;5086550;28;20057;-74
2024/01/21 05:44:38;;;;;;;0.20;0.20;;;1.80;71.30;;;;;;5076133;28;20041;-75
2024/01/21 05:47:05;;;;;;;0.20;0.20;;;1.80;71.10;;;;;;5046761;28;20056;-74
2024/01/21 05:49:32;;;;;;;0.20;0.20;;;1.90;71.20;;;;;;5071650;28;20045;-74
2024/01/21 05:52:00;;;;;;;0.20;0.20;;;1.90;70.90;;;;;;5086564;28;20132;-74
2024/01/21 05:54:27;;;;;;;0.20;0.20;;;1.90;71.20;;;;;;5084180;28;20037;-74
2024/01/21 05:56:54;;;;;;;0.20;0.20;;;1.90;71.00;;;;;;5083579;28;20111;-73
2024/01/21 05:59:21;;;;;;;0.20;0.20;;;1.90;71.00;;;;;;5061934;28;20505;-74
2024/01/21 06:01:49;;;;;;;0.20;0.20;;;2.00;70.70;;;;;;5063621;28;29881;-74
2024/01/21 06:04:17;;;;;;;0.20;0.20;;;2.10;70.50;;;;;;5086442;28;20076;-74
2024/01/21 06:06:45;;;;;;;0.10;0.10;;;2.10;70.80;;;;;;5071213;28;20517;-74
2024/01/21 06:09:12;;;;;;;0.10;0.10;;;2.10;70.90;;;;;;5099586;28;20045;-74
2024/01/21 06:11:40;;;;;;;0.20;0.20;;;2.20;70.10;;;;;;5069380;28;20504;-74
2024/01/21 06:14:08;;;;;;;0.20;0.20;;;2.30;70.50;;;;;;5086338;28;20048;-74
2024/01/21 06:16:35;;;;;;;0.20;0.20;;;2.20;70.80;;;;;;5082886;28;20416;-74
2024/01/21 06:19:03;;;;;;;0.20;0.20;;;2.30;71.00;;;;;;5082646;28;20464;-74
2024/01/21 06:21:31;;;;;;;0.20;0.20;;;2.30;70.70;;;;;;5087681;28;20060;-74
2024/01/21 06:23:58;;;;;;;0.20;0.20;;;2.40;70.40;;;;;;5087872;28;20098;-74
2024/01/21 06:26:25;;;;;;;0.20;0.20;;;2.50;70.40;;;;;;5081006;28;20504;-74
2024/01/21 06:28:52;;;;;;;0.20;0.20;;;2.50;70.40;;;;;;5070831;28;24730;-74
2024/01/21 06:31:20;;;;;;;0.20;0.20;;;2.60;70.20;;;;;;5087688;28;20044;-74
2024/01/21 06:33:47;;;;;;;0.20;0.20;;;2.70;69.60;;;;;;5084224;28;20040;-74
2024/01/21 06:36:15;;;;;;;0.10;0.10;;;2.80;70.10;;;;;;5088990;28;20075;-74
2024/01/21 06:38:42;;;;;;;0.20;0.20;;;2.80;69.30;;;;;;5088723;28;20511;-74
2024/01/21 06:41:09;;;;;;;0.20;0.20;;;2.90;69.50;;;;;;5088696;28;20044;-74
2024/01/21 06:43:36;;;;;;;0.10;0.10;;;3.00;69.40;;;;;;5082941;28;20489;-74
2024/01/21 06:46:03;;;;;;;0.20;0.20;;;2.90;69.20;;;;;;5053816;28;20056;-74
2024/01/21 06:48:30;;;;;;;0.10;0.10;;;2.90;69.60;;;;;;5055432;28;20589;-74
2024/01/21 06:50:58;;;;;;;0.20;0.20;;;2.90;69.60;;;;;;5078888;28;20040;-73
2024/01/21 06:53:25;;;;;;;0.20;0.20;;;2.90;70.00;;;;;;5064716;28;20044;-74
2024/01/21 06:55:52;;;;;;;0.20;0.20;;;2.80;70.80;;;;;;5084914;28;20053;-73
2024/01/21 06:58:19;;;;;;;0.20;0.20;;;2.70;72.00;;;;;;5088889;28;20528;-74
2024/01/21 07:00:51;;;;;;;0.20;0.20;;;2.70;71.10;;;;;;5048403;28;20056;-73
2024/01/21 07:03:19;;;;;;;0.20;0.20;;;2.70;71.20;;;;;;5069585;28;20052;-72
2024/01/21 07:05:46;;;;;;;0.20;0.20;;;2.70;71.80;;;;;;5080754;28;20505;-72
2024/01/21 07:08:14;;;;;;;0.20;0.20;;;2.60;71.80;;;;;;5085889;28;20570;-72
2024/01/21 07:10:41;;;;;;;0.20;0.20;;;2.60;72.50;;;;;;5088609;28;20068;-73
2024/01/21 07:13:10;;;;;;;0.20;0.20;;;2.70;71.20;;;;;;5063974;28;20049;-73
2024/01/21 07:15:39;;;;;;;0.20;0.20;;;2.70;71.70;;;;;;5081495;28;20509;-73
2024/01/21 07:18:09;;;;;;;0.20;0.20;;;2.70;72.30;;;;;;5087032;28;20044;-73
2024/01/21 07:20:36;;;;;;;0.20;0.20;;;2.60;72.30;;;;;;5086686;28;20044;-73
2024/01/21 07:23:03;;;;;;;0.22;0.22;;;2.60;72.40;;;;;;5089934;28;20060;-73
2024/01/21 07:25:31;;;;;;;0.20;0.20;;;2.60;72.70;;;;;;5049558;28;20049;-73
2024/01/21 07:27:58;;;;;;;0.15;0.15;;;2.60;72.70;;;;;;5084015;28;20067;-73
2024/01/21 07:30:25;;;;;;;0.30;0.30;;;2.60;73.60;;;;;;5068585;28;20055;-73
2024/01/21 07:32:52;;;;;;;0.20;0.20;;;2.50;74.80;;;;;;5050512;28;20049;-73
2024/01/21 07:35:21;;;;;;;0.20;0.20;;;2.50;73.80;;;;;;5079960;28;20055;-73
2024/01/21 07:37:48;;;;;;;0.20;0.20;;;2.50;74.10;;;;;;5085069;28;20079;-73
2024/01/21 07:40:15;;;;;;;0.20;0.20;;;2.40;74.30;;;;;;5086900;28;20798;-73
2024/01/21 07:42:42;;;;;;;0.10;0.10;;;2.40;74.70;;;;;;5070822;28;20052;-73
2024/01/21 07:45:11;;;;;;;0.20;0.20;;;2.40;75.10;;;;;;5083399;28;20044;-73
2024/01/21 07:47:38;;;;;;;0.20;0.20;;;2.40;75.20;;;;;;5086293;28;20052;-72
2024/01/21 07:50:07;;;;;;;0.20;0.20;;;2.30;76.00;;;;;;5083163;28;20049;-72
2024/01/21 07:52:34;;;;;;;0.20;0.20;;;2.30;75.50;;;;;;5063487;28;20049;-73
2024/01/21 07:55:01;;;;;;;0.20;0.20;;;2.30;75.70;;;;;;5087971;28;20049;-72
2024/01/21 07:57:29;;;;;;;0.20;0.20;;;2.30;76.10;;;;;;5080230;28;20619;-72
2024/01/21 07:59:56;;;;;;;0.10;0.10;;;2.30;76.10;;;;;;5067706;28;20048;-72
2024/01/21 08:02:27;;;;;;;0.20;0.20;;;2.20;76.60;;;;;;5067803;28;20122;-72
2024/01/21 08:04:54;;;;;;;0.20;0.20;;;2.20;76.90;;;;;;5083705;28;20048;-73
2024/01/21 08:07:21;;;;;;;0.10;0.10;;;2.20;77.00;;;;;;5084190;28;20074;-72
2024/01/21 08:09:49;;;;;;;0.20;0.20;;;2.20;76.70;;;;;;5080350;28;20603;-73
2024/01/21 08:12:17;;;;;;;0.20;0.20;;;2.20;77.00;;;;;;5069762;28;20145;-73
2024/01/21 08:14:45;;;;;;;0.20;0.20;;;2.20;77.20;;;;;;5089485;28;20127;-73
2024/01/21 08:17:13;;;;;;;0.20;0.20;;;2.20;77.60;;;;;;5064517;28;20045;-73
2024/01/21 08:19:40;;;;;;;0.20;0.20;;;2.30;77.50;;;;;;5089835;28;20049;-73
2024/01/21 08:22:10;;;;;;;0.15;0.15;;;2.20;77.90;;;;;;5103961;28;20488;-72
2024/01/21 08:24:37;;;;;;;0.20;0.20;;;2.20;78.20;;;;;;5064176;28;20420;-73
2024/01/21 08:27:06;;;;;;;0.20;0.20;;;2.20;78.80;;;;;;5079821;28;20114;-72
2024/01/21 08:29:34;;;;;;;0.20;0.20;;;2.20;78.60;;;;;;5089036;28;20049;-73
2024/01/21 08:32:03;;;;;;;0.20;0.20;;;2.20;78.30;;;;;;5066102;28;20061;-73
2024/01/21 08:34:33;;;;;;;0.20;0.20;;;2.20;78.50;;;;;;5056078;28;20049;-73
2024/01/21 08:37:01;;;;;;;0.20;0.20;;;2.30;78.60;;;;;;5085644;28;20443;-73
2024/01/21 08:39:28;;;;;;;0.20;0.20;;;2.30;79.20;;;;;;5077313;28;20048;-74
2024/01/21 08:41:55;;;;;;;0.20;0.20;;;2.30;79.10;;;;;;5085704;28;20132;-74
2024/01/21 08:44:22;;;;;;;0.20;0.20;;;2.40;79.60;;;;;;5082834;28;20053;-73
2024/01/21 08:46:49;;;;;;;0.20;0.20;;;2.40;79.90;;;;;;5081830;28;20057;-74
2024/01/21 08:49:16;;;;;;;0.20;0.20;;;2.40;78.90;;;;;;5080679;28;20052;-74
2024/01/21 08:51:44;;;;;;;0.20;0.20;;;2.50;79.60;;;;;;5058676;28;20037;-73
2024/01/21 08:54:11;;;;;;;0.20;0.20;;;2.50;79.10;;;;;;5069008;28;20088;-73
2024/01/21 08:56:40;;;;;;;0.20;0.20;;;2.40;79.50;;;;;;5090280;28;20055;-73
2024/01/21 08:59:07;;;;;;;0.20;0.20;;;2.40;79.10;;;;;;5069774;28;20048;-73
2024/01/21 09:01:34;;;;;;;0.20;0.20;;;2.40;79.30;;;;;;5066485;28;20160;-75
2024/01/21 09:04:02;;;;;;;0.20;0.20;;;2.40;79.40;;;;;;5067851;28;20083;-74
2024/01/21 09:06:29;;;;;;;0.20;0.20;;;2.40;79.90;;;;;;5056763;28;20057;-74
2024/01/21 09:08:58;;;;;;;0.20;0.20;;;2.50;80.30;;;;;;5070630;28;20053;-74
2024/01/21 09:11:25;;;;;;;0.20;0.20;;;2.50;80.10;;;;;;5063125;28;20043;-74
2024/01/21 09:13:53;;;;;;;0.20;0.20;;;2.60;79.80;;;;;;5081241;28;20495;-73
2024/01/21 09:16:20;;;;;;;0.20;0.20;;;2.60;79.70;;;;;;5082306;28;20076;-74
2024/01/21 09:18:50;;;;;;;0.20;0.20;;;2.60;80.20;;;;;;5066412;28;20056;-74
2024/01/21 09:21:17;;;;;;;0.20;0.20;;;2.60;80.30;;;;;;5060045;28;20041;-74
2024/01/21 09:23:50;;;;;;;0.20;0.20;;;2.60;80.60;;;;;;5079456;28;20048;-74
2024/01/21 09:26:17;;;;;;;0.20;0.20;;;2.60;80.60;;;;;;5087947;28;20059;-74
2024/01/21 09:28:44;;;;;;;0.30;0.30;;;2.60;80.60;;;;;;5070507;28;20064;-74
2024/01/21 09:31:12;;;;;;;0.20;0.20;;;2.70;81.10;;;;;;5086463;28;20051;-74
2024/01/21 09:33:39;;;;;;;0.28;0.28;;;2.70;81.40;;;;;;5081114;28;20196;-74
2024/01/21 09:36:06;;;;;;;0.20;0.20;;;2.80;81.60;;;;;;5080627;28;20520;-74
2024/01/21 09:38:33;;;;;;;0.30;0.30;;;2.80;80.90;;;;;;5080915;28;20044;-74
2024/01/21 09:41:32;;;;;;;0.20;0.20;;;2.80;81.90;;;;;;5087092;28;20041;-74
2024/01/21 09:44:00;;;;;;;0.20;0.20;;;2.70;82.00;;;;;;5099059;28;20053;-74
2024/01/21 09:46:28;;;;;;;0.25;0.25;;;2.70;82.20;;;;;;5078174;28;20040;-74
2024/01/21 09:48:57;;;;;;;0.20;0.20;;;2.80;82.30;;;;;;5063973;28;20053;-74
2024/01/21 09:51:25;;;;;;;0.20;0.20;;;2.80;82.40;;;;;;5086921;28;20463;-75
2024/01/21 09:53:52;;;;;;;0.20;0.20;;;2.80;82.80;;;;;;5089221;28;20431;-74
2024/01/21 09:56:19;;;;;;;0.20;0.20;;;2.90;82.70;;;;;;5089546;28;20076;-74
2024/01/21 09:58:50;;;;;;;0.20;0.20;;;2.90;82.70;;;;;;5063261;28;20056;-75
2024/01/21 10:01:18;;;;;;;0.20;0.20;;;2.90;82.80;;;;;;5084647;28;20581;-73
2024/01/21 10:03:47;;;;;;;0.20;0.20;;;3.00;83.00;;;;;;5069833;28;20461;-74
2024/01/21 10:06:14;;;;;;;0.20;0.20;;;3.00;83.10;;;;;;5086329;28;20069;-74
2024/01/21 10:08:45;;;;;;;0.20;0.20;;;2.90;82.80;;;;;;5069062;28;20564;-74
2024/01/21 10:11:12;;;;;;;0.20;0.20;;;2.90;83.60;;;;;;5067874;28;20053;-74
2024/01/21 10:13:39;;;;;;;0.20;0.20;;;2.90;83.80;;;;;;5090479;28;20048;-74
2024/01/21 10:16:07;;;;;;;0.20;0.20;;;2.90;85.20;;;;;;5071234;28;20040;-74
2024/01/21 10:18:35;;;;;;;0.25;0.25;;;2.90;84.40;;;;;;5086427;28;20130;-74
2024/01/21 10:21:04;;;;;;;0.30;0.30;;;3.00;84.20;;;;;;5067829;28;20045;-74
